createdAt,value
2018-04-02T00:00:02.335Z,20.75
2018-04-02T00:01:02.355Z,20.75
2018-04-02T00:02:02.308Z,20.75
2018-04-02T00:03:02.358Z,20.75
2018-04-02T00:04:02.319Z,20.75
2018-04-02T00:05:02.319Z,20.5
2018-04-02T00:06:02.355Z,20.75
2018-04-02T00:07:02.306Z,20.75
2018-04-02T00:08:02.308Z,20.75
2018-04-02T00:09:02.335Z,20.75
2018-04-02T00:10:02.318Z,20.75
2018-04-02T00:11:02.412Z,20.5
2018-04-02T00:12:02.311Z,20.75
2018-04-02T00:13:02.305Z,20.75
2018-04-02T00:14:02.331Z,20.5
2018-04-02T00:15:02.314Z,20.75
2018-04-02T00:16:02.344Z,20.75
2018-04-02T00:17:02.317Z,20.5
2018-04-02T00:18:02.324Z,20.75
2018-04-02T00:19:02.324Z,20.75
2018-04-02T00:20:02.308Z,20.5
2018-04-02T00:21:02.361Z,20.75
2018-04-02T00:22:02.318Z,20.75
2018-04-02T00:23:02.334Z,20.5
2018-04-02T00:24:02.464Z,20.75
2018-04-02T00:25:02.338Z,20.75
2018-04-02T00:26:02.341Z,20.5
2018-04-02T00:27:02.336Z,20.75
2018-04-02T00:28:02.299Z,20.75
2018-04-02T00:29:02.327Z,20.5
2018-04-02T00:30:02.338Z,20.75
2018-04-02T00:31:02.299Z,20.75
2018-04-02T00:32:02.345Z,20.5
2018-04-02T00:33:02.312Z,20.75
2018-04-02T00:34:02.300Z,20.75
2018-04-02T00:35:02.334Z,20.5
2018-04-02T00:36:02.309Z,20.5
2018-04-02T00:37:02.440Z,20.75
2018-04-02T00:38:02.312Z,20.5
2018-04-02T00:39:02.292Z,20.5
2018-04-02T00:40:02.318Z,20.75
2018-04-02T00:41:02.311Z,20.5
2018-04-02T00:42:02.400Z,20.5
2018-04-02T00:43:02.308Z,20.5
2018-04-02T00:44:02.295Z,20.5
2018-04-02T00:45:02.294Z,20.5
2018-04-02T00:46:02.575Z,20.5
2018-04-02T00:47:02.325Z,20.5
2018-04-02T00:48:02.318Z,20.5
2018-04-02T00:49:02.285Z,20.5
2018-04-02T00:50:02.300Z,20.5
2018-04-02T00:51:02.366Z,20.5
2018-04-02T00:52:02.291Z,20.5
2018-04-02T00:53:02.418Z,20.5
2018-04-02T00:54:02.411Z,20.5
2018-04-02T00:55:02.289Z,20.5
2018-04-02T00:56:02.302Z,20.5
2018-04-02T00:57:02.301Z,20.5
2018-04-02T00:58:02.403Z,20.5
2018-04-02T00:59:02.323Z,20.5
2018-04-02T01:00:02.318Z,20.5
2018-04-02T01:01:02.279Z,20.5
2018-04-02T01:02:02.312Z,20.5
2018-04-02T01:03:02.334Z,20.5
2018-04-02T01:04:02.288Z,20.5
2018-04-02T01:05:02.277Z,20.5
2018-04-02T01:06:02.319Z,20.5
2018-04-02T01:07:02.331Z,20.5
2018-04-02T01:08:02.543Z,20.5
2018-04-02T01:09:02.289Z,20.5
2018-04-02T01:10:02.297Z,20.5
2018-04-02T01:11:02.315Z,20.5
2018-04-02T01:12:02.316Z,20.5
2018-04-02T01:13:02.353Z,20.5
2018-04-02T01:14:02.313Z,20.5
2018-04-02T01:15:02.315Z,20.5
2018-04-02T01:16:02.282Z,20.5
2018-04-02T01:17:02.312Z,20.5
2018-04-02T01:18:02.283Z,20.5
2018-04-02T01:19:02.287Z,20.5
2018-04-02T01:20:02.315Z,20.5
2018-04-02T01:21:02.305Z,20.5
2018-04-02T01:22:02.295Z,20.5
2018-04-02T01:23:02.310Z,20.5
2018-04-02T01:24:02.454Z,20.5
2018-04-02T01:25:02.309Z,20.5
2018-04-02T01:26:02.322Z,20.5
2018-04-02T01:27:02.299Z,20.5
2018-04-02T01:28:02.282Z,20.5
2018-04-02T01:29:02.334Z,20.25
2018-04-02T01:30:02.286Z,20.5
2018-04-02T01:31:02.294Z,20.5
2018-04-02T01:32:02.310Z,20.25
2018-04-02T01:33:02.272Z,20.5
2018-04-02T01:34:02.566Z,20.5
2018-04-02T01:35:02.517Z,20.25
2018-04-02T01:36:02.309Z,20.5
2018-04-02T01:37:02.289Z,20.5
2018-04-02T01:38:02.323Z,20.25
2018-04-02T01:39:02.331Z,20.5
2018-04-02T01:40:02.269Z,20.5
2018-04-02T01:41:02.323Z,20.25
2018-04-02T01:42:02.274Z,20.5
2018-04-02T01:43:02.309Z,20.5
2018-04-02T01:44:02.386Z,20.25
2018-04-02T01:45:02.291Z,20.5
2018-04-02T01:46:02.284Z,20.5
2018-04-02T01:47:02.321Z,20.25
2018-04-02T01:48:02.292Z,20.5
2018-04-02T01:49:02.305Z,20.5
2018-04-02T01:50:02.467Z,20.25
2018-04-02T01:51:02.280Z,20.5
2018-04-02T01:52:02.276Z,20.5
2018-04-02T01:53:02.279Z,20.25
2018-04-02T01:54:02.347Z,20.5
2018-04-02T01:55:02.294Z,20.5
2018-04-02T01:56:02.288Z,20.25
2018-04-02T01:57:02.278Z,20.25
2018-04-02T01:58:02.274Z,20.5
2018-04-02T01:59:02.310Z,20.25
2018-04-02T02:00:02.296Z,20.5
2018-04-02T02:01:02.285Z,20.5
2018-04-02T02:02:02.299Z,20.25
2018-04-02T02:03:02.916Z,20.5
2018-04-02T02:04:02.316Z,20.5
2018-04-02T02:05:02.289Z,20.25
2018-04-02T02:06:02.300Z,20.25
2018-04-02T02:07:02.261Z,20.5
2018-04-02T02:08:02.268Z,20.25
2018-04-02T02:09:02.320Z,20.5
2018-04-02T02:10:02.295Z,20.25
2018-04-02T02:11:02.543Z,20.25
2018-04-02T02:12:02.326Z,20.25
2018-04-02T02:13:02.279Z,20.25
2018-04-02T02:14:02.291Z,20.25
2018-04-02T02:15:02.374Z,20.25
2018-04-02T02:16:02.283Z,20.25
2018-04-02T02:17:02.258Z,20.25
2018-04-02T02:18:02.297Z,20.25
2018-04-02T02:19:02.251Z,20.25
2018-04-02T02:20:02.301Z,20.25
2018-04-02T02:21:02.318Z,20.25
2018-04-02T02:22:02.260Z,20.25
2018-04-02T02:23:02.335Z,20.25
2018-04-02T02:24:02.286Z,20.25
2018-04-02T02:25:02.278Z,20.25
2018-04-02T02:26:02.340Z,20.25
2018-04-02T02:27:02.313Z,20.25
2018-04-02T02:28:02.272Z,20.25
2018-04-02T02:29:02.277Z,20.25
2018-04-02T02:30:02.304Z,20.25
2018-04-02T02:31:02.286Z,20.25
2018-04-02T02:32:02.291Z,20.25
2018-04-02T02:33:02.301Z,20.25
2018-04-02T02:34:02.257Z,20.25
2018-04-02T02:35:02.577Z,20.25
2018-04-02T02:36:02.458Z,20.25
2018-04-02T02:37:02.267Z,20.25
2018-04-02T02:38:02.324Z,20.25
2018-04-02T02:39:02.275Z,20.25
2018-04-02T02:40:02.239Z,20.25
2018-04-02T02:41:02.306Z,20.25
2018-04-02T02:42:02.362Z,20.25
2018-04-02T02:43:02.268Z,20.25
2018-04-02T02:44:02.290Z,20.25
2018-04-02T02:45:02.286Z,20.25
2018-04-02T02:46:02.351Z,20.25
2018-04-02T02:47:02.284Z,20.25
2018-04-02T02:48:02.261Z,20.25
2018-04-02T02:49:02.262Z,20.25
2018-04-02T02:50:02.319Z,20.25
2018-04-02T02:51:02.314Z,20.25
2018-04-02T02:52:02.258Z,20.25
2018-04-02T02:53:02.284Z,20.25
2018-04-02T02:54:02.361Z,20.25
2018-04-02T02:55:02.349Z,20.25
2018-04-02T02:56:02.310Z,20.25
2018-04-02T02:57:02.307Z,20.25
2018-04-02T02:58:02.257Z,20.25
2018-04-02T02:59:02.280Z,20.25
2018-04-02T03:00:02.254Z,20.25
2018-04-02T03:01:02.287Z,20.25
2018-04-02T03:02:02.315Z,20.25
2018-04-02T03:03:02.271Z,20.25
2018-04-02T03:04:02.272Z,20.25
2018-04-02T03:05:02.331Z,20.25
2018-04-02T03:06:02.255Z,20.25
2018-04-02T03:07:02.550Z,20.25
2018-04-02T03:08:02.300Z,20
2018-04-02T03:09:02.294Z,20.25
2018-04-02T03:10:02.261Z,20.25
2018-04-02T03:11:02.298Z,20.25
2018-04-02T03:12:02.315Z,20.25
2018-04-02T03:13:02.246Z,20.25
2018-04-02T03:14:02.273Z,20.25
2018-04-02T03:15:02.253Z,20.25
2018-04-02T03:16:02.244Z,20.25
2018-04-02T03:17:02.328Z,20
2018-04-02T03:18:02.268Z,20.25
2018-04-02T03:19:02.264Z,20.25
2018-04-02T03:20:02.285Z,20
2018-04-02T03:21:02.245Z,20.25
2018-04-02T03:22:02.264Z,20.25
2018-04-02T03:23:02.264Z,20
2018-04-02T03:24:02.280Z,20.25
2018-04-02T03:25:02.249Z,20.25
2018-04-02T03:26:02.276Z,20
2018-04-02T03:27:02.288Z,20.25
2018-04-02T03:28:02.250Z,20.25
2018-04-02T03:29:02.252Z,20
2018-04-02T03:30:02.248Z,20.25
2018-04-02T03:31:02.254Z,20.25
2018-04-02T03:32:02.264Z,20
2018-04-02T03:33:02.268Z,20.25
2018-04-02T03:34:02.273Z,20.25
2018-04-02T03:35:02.288Z,20
2018-04-02T03:36:02.264Z,20.25
2018-04-02T03:37:02.241Z,20.25
2018-04-02T03:38:02.276Z,20
2018-04-02T03:39:02.277Z,20.25
2018-04-02T03:40:02.258Z,20.25
2018-04-02T03:41:02.273Z,20
2018-04-02T03:42:02.261Z,20.25
2018-04-02T03:43:02.234Z,20.25
2018-04-02T03:44:02.281Z,20
2018-04-02T03:45:02.261Z,20
2018-04-02T03:46:02.300Z,20.25
2018-04-02T03:47:02.259Z,20
2018-04-02T03:48:02.333Z,20
2018-04-02T03:49:02.252Z,20.25
2018-04-02T03:50:02.271Z,20
2018-04-02T03:51:02.268Z,20.25
2018-04-02T03:52:02.245Z,20.25
2018-04-02T03:53:02.254Z,20
2018-04-02T03:54:02.262Z,20.25
2018-04-02T03:55:02.277Z,20.25
2018-04-02T03:56:02.245Z,20
2018-04-02T03:57:02.275Z,20
2018-04-02T03:58:02.232Z,20
2018-04-02T03:59:02.264Z,20
2018-04-02T04:00:02.267Z,20
2018-04-02T04:01:02.229Z,20
2018-04-02T04:02:02.551Z,20
2018-04-02T04:03:02.268Z,20
2018-04-02T04:04:02.253Z,20
2018-04-02T04:05:02.285Z,20
2018-04-02T04:06:02.236Z,20
2018-04-02T04:07:02.273Z,20
2018-04-02T04:08:02.262Z,20
2018-04-02T04:09:02.252Z,20
2018-04-02T04:10:02.227Z,20
2018-04-02T04:11:02.265Z,20
2018-04-02T04:12:02.259Z,20
2018-04-02T04:13:02.230Z,20
2018-04-02T04:14:02.234Z,20
2018-04-02T04:15:02.256Z,20
2018-04-02T04:16:02.223Z,20
2018-04-02T04:17:02.241Z,20
2018-04-02T04:18:02.326Z,20
2018-04-02T04:19:02.359Z,20
2018-04-02T04:20:02.298Z,20
2018-04-02T04:21:02.250Z,20
2018-04-02T04:22:02.236Z,20.25
2018-04-02T04:23:02.284Z,20.25
2018-04-02T04:24:02.260Z,20.25
2018-04-02T04:25:02.270Z,20.25
2018-04-02T04:26:02.254Z,20.25
2018-04-02T04:27:02.235Z,20.25
2018-04-02T04:28:02.222Z,20.25
2018-04-02T04:29:02.255Z,20.25
2018-04-02T04:30:02.279Z,20.25
2018-04-02T04:31:02.211Z,20.25
2018-04-02T04:32:02.274Z,20.25
2018-04-02T04:33:02.254Z,20.25
2018-04-02T04:34:02.260Z,20.25
2018-04-02T04:35:02.253Z,20.25
2018-04-02T04:36:02.236Z,20.25
2018-04-02T04:37:02.245Z,20.25
2018-04-02T04:38:02.254Z,20.25
2018-04-02T04:39:02.286Z,20.5
2018-04-02T04:40:02.214Z,20.5
2018-04-02T04:41:02.252Z,20.25
2018-04-02T04:42:02.248Z,20.5
2018-04-02T04:43:02.235Z,20.5
2018-04-02T04:44:02.272Z,20.5
2018-04-02T04:45:02.291Z,20.5
2018-04-02T04:46:02.220Z,20.5
2018-04-02T04:47:02.238Z,20.5
2018-04-02T04:48:02.230Z,20.5
2018-04-02T04:49:02.228Z,20.5
2018-04-02T04:50:02.432Z,20.5
2018-04-02T04:51:02.220Z,20.5
2018-04-02T04:52:02.222Z,20.5
2018-04-02T04:53:02.216Z,20.5
2018-04-02T04:54:02.217Z,20.5
2018-04-02T04:55:02.355Z,20.5
2018-04-02T04:56:02.308Z,20.5
2018-04-02T04:57:02.220Z,20.5
2018-04-02T04:58:02.220Z,20.5
2018-04-02T04:59:02.211Z,20.5
2018-04-02T05:00:02.246Z,20.75
2018-04-02T05:01:02.240Z,20.75
2018-04-02T05:02:02.216Z,20.5
2018-04-02T05:03:02.222Z,20.75
2018-04-02T05:04:02.217Z,20.75
2018-04-02T05:05:02.264Z,20.75
2018-04-02T05:06:02.216Z,20.75
2018-04-02T05:07:02.209Z,20.75
2018-04-02T05:08:02.219Z,20.75
2018-04-02T05:09:02.227Z,20.75
2018-04-02T05:10:02.239Z,20.75
2018-04-02T05:11:02.234Z,20.75
2018-04-02T05:12:02.260Z,20.75
2018-04-02T05:13:02.231Z,20.75
2018-04-02T05:14:02.248Z,20.75
2018-04-02T05:15:02.312Z,20.75
2018-04-02T05:16:02.206Z,20.75
2018-04-02T05:17:02.237Z,20.75
2018-04-02T05:18:02.247Z,20.75
2018-04-02T05:19:02.203Z,20.75
2018-04-02T05:20:02.229Z,20.75
2018-04-02T05:21:02.294Z,20.75
2018-04-02T05:22:02.226Z,20.75
2018-04-02T05:23:02.265Z,20.75
2018-04-02T05:24:02.214Z,20.75
2018-04-02T05:25:02.240Z,21
2018-04-02T05:26:02.243Z,20.75
2018-04-02T05:27:02.229Z,21
2018-04-02T05:28:02.210Z,21
2018-04-02T05:29:02.245Z,21
2018-04-02T05:30:02.285Z,21
2018-04-02T05:31:02.519Z,21
2018-04-02T05:32:02.239Z,21
2018-04-02T05:33:02.232Z,21
2018-04-02T05:34:02.229Z,21
2018-04-02T05:35:02.235Z,21
2018-04-02T05:36:02.224Z,21
2018-04-02T05:37:02.203Z,21
2018-04-02T05:38:02.249Z,21
2018-04-02T05:39:02.207Z,21
2018-04-02T05:40:02.195Z,21
2018-04-02T05:41:02.045Z,21
2018-04-02T05:42:02.265Z,21
2018-04-02T05:43:02.209Z,21
2018-04-02T05:44:02.224Z,21
2018-04-02T05:45:02.227Z,21
2018-04-02T05:46:02.202Z,21
2018-04-02T05:47:02.231Z,21
2018-04-02T05:48:02.205Z,21
2018-04-02T05:49:02.214Z,21
2018-04-02T05:50:02.227Z,21
2018-04-02T05:51:02.417Z,21
2018-04-02T05:52:02.259Z,21
2018-04-02T05:53:02.200Z,21
2018-04-02T05:54:02.239Z,21
2018-04-02T05:55:02.218Z,21
2018-04-02T05:56:02.208Z,21
2018-04-02T05:57:02.219Z,21
2018-04-02T05:58:02.205Z,21
2018-04-02T05:59:02.207Z,21
2018-04-02T06:00:02.203Z,21
2018-04-02T06:01:02.218Z,21.25
2018-04-02T06:02:02.220Z,21
2018-04-02T06:03:02.244Z,21.25
2018-04-02T06:04:02.224Z,21.25
2018-04-02T06:05:02.223Z,21
2018-04-02T06:06:02.220Z,21.25
2018-04-02T06:07:02.211Z,21.25
2018-04-02T06:08:02.193Z,21.25
2018-04-02T06:09:02.225Z,21.25
2018-04-02T06:10:02.202Z,21.25
2018-04-02T06:11:02.245Z,21.25
2018-04-02T06:12:02.224Z,21.25
2018-04-02T06:13:02.212Z,21.25
2018-04-02T06:14:02.204Z,21.25
2018-04-02T06:15:02.225Z,21.25
2018-04-02T06:16:02.219Z,21.25
2018-04-02T06:17:02.224Z,21.25
2018-04-02T06:18:02.190Z,21.25
2018-04-02T06:19:02.200Z,21.25
2018-04-02T06:20:02.320Z,21.25
2018-04-02T06:21:02.201Z,21.25
2018-04-02T06:22:02.234Z,21.25
2018-04-02T06:23:02.260Z,21.25
2018-04-02T06:24:02.220Z,21.25
2018-04-02T06:25:02.233Z,21.25
2018-04-02T06:26:02.213Z,21.25
2018-04-02T06:27:02.186Z,21.25
2018-04-02T06:28:02.191Z,21.25
2018-04-02T06:29:02.234Z,21.25
2018-04-02T06:30:02.213Z,21.25
2018-04-02T06:31:02.239Z,21.25
2018-04-02T06:32:02.196Z,21.25
2018-04-02T06:33:02.201Z,21.25
2018-04-02T06:34:02.476Z,21.25
2018-04-02T06:35:02.224Z,21.25
2018-04-02T06:36:02.224Z,21.25
2018-04-02T06:37:02.576Z,21.25
2018-04-02T06:38:02.188Z,21.25
2018-04-02T06:39:02.259Z,21.25
2018-04-02T06:40:02.236Z,21.25
2018-04-02T06:41:02.204Z,21.25
2018-04-02T06:42:02.190Z,21.25
2018-04-02T06:43:02.193Z,21.25
2018-04-02T06:44:02.217Z,21.25
2018-04-02T06:45:02.195Z,21.25
2018-04-02T06:46:02.175Z,21.5
2018-04-02T06:47:02.179Z,21.25
2018-04-02T06:48:02.182Z,21.5
2018-04-02T06:49:02.214Z,21.5
2018-04-02T06:50:02.216Z,21.25
2018-04-02T06:51:02.210Z,21.5
2018-04-02T06:52:02.172Z,21.25
2018-04-02T06:53:02.196Z,21.25
2018-04-02T06:54:02.289Z,21.25
2018-04-02T06:55:02.172Z,21.25
2018-04-02T06:56:02.303Z,21
2018-04-02T06:57:02.299Z,21
2018-04-02T06:58:02.192Z,21
2018-04-02T06:59:02.199Z,21
2018-04-02T07:00:02.205Z,21
2018-04-02T07:01:02.234Z,21
2018-04-02T07:02:02.213Z,21
2018-04-02T07:03:02.194Z,21
2018-04-02T07:04:02.215Z,21
2018-04-02T07:05:02.206Z,21
2018-04-02T07:06:02.204Z,21
2018-04-02T07:07:02.196Z,21
2018-04-02T07:08:02.202Z,21
2018-04-02T07:09:02.217Z,21
2018-04-02T07:10:02.209Z,21.25
2018-04-02T07:11:02.531Z,21
2018-04-02T07:12:02.188Z,21.25
2018-04-02T07:13:02.255Z,21.25
2018-04-02T07:14:02.217Z,21.25
2018-04-02T07:15:02.204Z,21.25
2018-04-02T07:16:02.208Z,21.25
2018-04-02T07:17:02.215Z,21.25
2018-04-02T07:18:02.188Z,21.25
2018-04-02T07:19:02.165Z,21.25
2018-04-02T07:20:02.221Z,21.25
2018-04-02T07:21:02.173Z,21.25
2018-04-02T07:22:02.189Z,21.25
2018-04-02T07:23:02.464Z,21.25
2018-04-02T07:24:02.257Z,21.25
2018-04-02T07:25:02.257Z,21.25
2018-04-02T07:26:02.208Z,21.25
2018-04-02T07:27:02.199Z,21.25
2018-04-02T07:28:02.203Z,21.25
2018-04-02T07:29:02.183Z,21.25
2018-04-02T07:30:02.198Z,21.25
2018-04-02T07:31:02.192Z,21.5
2018-04-02T07:32:02.220Z,21.25
2018-04-02T07:33:02.196Z,21.25
2018-04-02T07:34:02.187Z,21.5
2018-04-02T07:35:07.954Z,21.25
2018-04-02T07:36:02.196Z,21.5
2018-04-02T07:37:02.184Z,21.5
2018-04-02T07:38:02.162Z,21.25
2018-04-02T07:39:02.164Z,21.5
2018-04-02T07:40:02.192Z,21.5
2018-04-02T07:41:02.165Z,21.25
2018-04-02T07:42:02.182Z,21.5
2018-04-02T07:43:02.184Z,21.5
2018-04-02T07:44:02.206Z,21.25
2018-04-02T07:45:02.459Z,21.5
2018-04-02T07:46:02.183Z,21.5
2018-04-02T07:47:02.241Z,21.5
2018-04-02T07:48:02.180Z,21.5
2018-04-02T07:49:02.186Z,21.5
2018-04-02T07:50:02.209Z,21.5
2018-04-02T07:51:02.194Z,21.5
2018-04-02T07:52:02.195Z,21.5
2018-04-02T07:53:02.179Z,21.5
2018-04-02T07:54:02.179Z,21.5
2018-04-02T07:55:02.256Z,21.5
2018-04-02T07:56:02.241Z,21.5
2018-04-02T07:57:02.267Z,21.5
2018-04-02T07:58:02.171Z,21.5
2018-04-02T07:59:02.165Z,21.5
2018-04-02T08:00:02.182Z,21.5
2018-04-02T08:01:02.181Z,21.5
2018-04-02T08:02:02.215Z,21.5
2018-04-02T08:03:02.185Z,21.5
2018-04-02T08:04:02.165Z,21.5
2018-04-02T08:05:02.185Z,21.5
2018-04-02T08:06:02.183Z,21.5
2018-04-02T08:07:02.177Z,21.5
2018-04-02T08:08:02.186Z,21.5
2018-04-02T08:09:02.202Z,21.5
2018-04-02T08:10:02.176Z,21.5
2018-04-02T08:11:02.184Z,21.5
2018-04-02T08:12:02.250Z,21.5
2018-04-02T08:13:02.176Z,21.5
2018-04-02T08:14:02.189Z,21.5
2018-04-02T08:15:02.176Z,21.5
2018-04-02T08:16:02.186Z,21.5
2018-04-02T08:17:02.206Z,21.5
2018-04-02T08:18:02.419Z,21.5
2018-04-02T08:19:02.159Z,21.5
2018-04-02T08:20:02.197Z,21.5
2018-04-02T08:21:02.163Z,21.5
2018-04-02T08:22:02.237Z,21.75
2018-04-02T08:23:02.182Z,21.5
2018-04-02T08:24:02.182Z,21.5
2018-04-02T08:25:02.186Z,21.75
2018-04-02T08:26:02.179Z,21.5
2018-04-02T08:27:02.300Z,21.75
2018-04-02T08:28:02.188Z,21.75
2018-04-02T08:29:02.201Z,21.5
2018-04-02T08:30:02.164Z,21.75
2018-04-02T08:31:02.158Z,21.75
2018-04-02T08:32:02.187Z,21.75
2018-04-02T08:33:02.348Z,21.75
2018-04-02T08:34:02.158Z,21.75
2018-04-02T08:35:02.179Z,21.75
2018-04-02T08:36:02.128Z,21.75
2018-04-02T08:37:02.214Z,21.75
2018-04-02T08:38:02.199Z,21.75
2018-04-02T08:39:02.177Z,21.75
2018-04-02T08:40:02.154Z,21.75
2018-04-02T08:41:02.177Z,21.75
2018-04-02T08:42:02.179Z,21.75
2018-04-02T08:43:02.180Z,21.75
2018-04-02T08:44:02.163Z,21.75
2018-04-02T08:45:02.198Z,21.75
2018-04-02T08:46:02.165Z,21.75
2018-04-02T08:47:02.166Z,21.75
2018-04-02T08:48:02.167Z,21.75
2018-04-02T08:49:02.145Z,21.75
2018-04-02T08:50:02.187Z,21.75
2018-04-02T08:51:02.172Z,21.75
2018-04-02T08:52:02.213Z,21.75
2018-04-02T08:53:02.156Z,21.75
2018-04-02T08:54:02.177Z,21.75
2018-04-02T08:55:02.213Z,21.75
2018-04-02T08:56:02.148Z,21.75
2018-04-02T08:57:02.247Z,21.75
2018-04-02T08:58:02.334Z,21.75
2018-04-02T08:59:02.171Z,21.75
2018-04-02T09:00:02.214Z,21.75
2018-04-02T09:01:02.157Z,21.75
2018-04-02T09:02:02.199Z,21.75
2018-04-02T09:03:02.144Z,21.75
2018-04-02T09:04:02.212Z,21.75
2018-04-02T09:05:02.207Z,21.75
2018-04-02T09:06:02.173Z,21.75
2018-04-02T09:07:02.147Z,21.75
2018-04-02T09:08:02.154Z,21.5
2018-04-02T09:09:02.142Z,21.75
2018-04-02T09:10:02.164Z,21.75
2018-04-02T09:11:02.116Z,21.75
2018-04-02T09:12:02.172Z,21.75
2018-04-02T09:13:02.140Z,21.75
2018-04-02T09:14:02.148Z,21.5
2018-04-02T09:15:02.179Z,21.75
2018-04-02T09:16:02.142Z,21.75
2018-04-02T09:17:02.171Z,21.75
2018-04-02T09:18:02.154Z,21.75
2018-04-02T09:19:02.132Z,21.75
2018-04-02T09:20:02.168Z,21.75
2018-04-02T09:21:02.166Z,21.75
2018-04-02T09:22:02.134Z,21.75
2018-04-02T09:23:02.169Z,21.75
2018-04-02T09:24:02.131Z,21.75
2018-04-02T09:25:02.150Z,21.75
2018-04-02T09:26:02.168Z,21.75
2018-04-02T09:27:02.178Z,21.75
2018-04-02T09:28:02.135Z,21.75
2018-04-02T09:29:02.204Z,21.75
2018-04-02T09:30:02.160Z,21.75
2018-04-02T09:31:02.167Z,21.75
2018-04-02T09:32:02.142Z,21.75
2018-04-02T09:33:02.167Z,21.75
2018-04-02T09:34:02.162Z,21.75
2018-04-02T09:35:02.162Z,21.75
2018-04-02T09:36:02.210Z,21.75
2018-04-02T09:37:02.224Z,21.75
2018-04-02T09:38:02.148Z,21.75
2018-04-02T09:39:02.173Z,21.75
2018-04-02T09:40:02.139Z,21.75
2018-04-02T09:41:02.193Z,21.75
2018-04-02T09:42:02.153Z,21.75
2018-04-02T09:43:02.145Z,21.75
2018-04-02T09:44:02.155Z,21.75
2018-04-02T09:45:02.237Z,21.75
2018-04-02T09:46:02.162Z,21.75
2018-04-02T09:47:02.117Z,21.75
2018-04-02T09:48:02.158Z,21.75
2018-04-02T09:49:02.153Z,21.75
2018-04-02T09:50:02.151Z,21.75
2018-04-02T09:51:02.333Z,21.75
2018-04-02T09:52:02.151Z,21.75
2018-04-02T09:53:02.128Z,21.75
2018-04-02T09:54:02.261Z,21.75
2018-04-02T09:55:02.142Z,21.75
2018-04-02T09:56:02.183Z,21.75
2018-04-02T09:57:02.159Z,21.75
2018-04-02T09:58:02.147Z,22
2018-04-02T09:59:02.214Z,21.75
2018-04-02T10:00:02.300Z,21.75
2018-04-02T10:01:02.285Z,22
2018-04-02T10:02:04.238Z,21.75
2018-04-02T10:03:02.139Z,22
2018-04-02T10:04:02.173Z,22
2018-04-02T10:05:02.751Z,22
2018-04-02T10:06:02.170Z,22
2018-04-02T10:07:02.129Z,22
2018-04-02T10:08:02.139Z,22
2018-04-02T10:09:02.154Z,22
2018-04-02T10:10:02.564Z,22
2018-04-02T10:11:02.151Z,22
2018-04-02T10:12:02.201Z,22
2018-04-02T10:13:02.112Z,22
2018-04-02T10:14:02.136Z,22
2018-04-02T10:15:02.123Z,22
2018-04-02T10:16:02.144Z,22
2018-04-02T10:17:02.169Z,22
2018-04-02T10:18:02.145Z,22
2018-04-02T10:19:02.161Z,22
2018-04-02T10:20:02.163Z,22
2018-04-02T10:21:02.172Z,22
2018-04-02T10:22:02.139Z,22
2018-04-02T10:23:02.144Z,22
2018-04-02T10:24:02.651Z,22
2018-04-02T10:25:02.135Z,22
2018-04-02T10:26:02.148Z,22
2018-04-02T10:27:02.167Z,22
2018-04-02T10:28:02.205Z,22
2018-04-02T10:29:02.154Z,22
2018-04-02T10:30:02.570Z,22
2018-04-02T10:31:02.745Z,22
2018-04-02T10:32:02.125Z,22
2018-04-02T10:33:02.165Z,22
2018-04-02T10:34:02.167Z,22
2018-04-02T10:35:02.172Z,22
2018-04-02T10:36:02.155Z,22
2018-04-02T10:37:02.158Z,22
2018-04-02T10:38:08.629Z,22
2018-04-02T10:39:02.144Z,22
2018-04-02T10:40:02.170Z,22
2018-04-02T10:41:02.135Z,22
2018-04-02T10:42:02.161Z,22
2018-04-02T10:43:02.153Z,22
2018-04-02T10:44:02.141Z,22
2018-04-02T10:45:02.120Z,22
2018-04-02T10:46:02.145Z,22
2018-04-02T10:47:02.153Z,22
2018-04-02T10:48:02.175Z,22
2018-04-02T10:49:02.147Z,22
2018-04-02T10:50:02.153Z,22
2018-04-02T10:51:02.137Z,22
2018-04-02T10:51:25.540Z,22
2018-04-02T10:52:25.519Z,22.25
2018-04-02T11:12:10.706Z,22
2018-04-02T11:13:10.667Z,22
2018-04-02T11:14:10.652Z,22
2018-04-02T11:15:10.687Z,22
2018-04-02T11:16:10.678Z,22
2018-04-02T11:17:10.657Z,22
2018-04-02T11:18:10.669Z,22
2018-04-02T11:19:10.680Z,22
2018-04-02T11:20:10.710Z,22
2018-04-02T11:21:10.662Z,22
2018-04-02T11:22:10.688Z,22
2018-04-02T11:23:10.662Z,22
2018-04-02T11:24:10.674Z,22.25
2018-04-02T11:25:10.667Z,22
2018-04-02T11:26:10.677Z,22.25
2018-04-02T11:27:10.683Z,22.25
2018-04-02T11:27:42.652Z,22.25
2018-04-02T11:28:42.640Z,22.25
2018-04-02T11:29:34.000Z,22.25
2018-04-02T11:30:33.991Z,22.25
2018-04-02T11:31:34.053Z,22.25
2018-04-02T11:32:34.016Z,22.25
2018-04-02T11:33:34.020Z,22.25
2018-04-02T11:34:34.005Z,22.5
2018-04-02T11:35:33.971Z,22.5
2018-04-02T11:36:34.002Z,22.25
2018-04-02T11:37:34.013Z,22.5
2018-04-02T11:38:33.985Z,22.5
2018-04-02T11:39:34.007Z,22.25
2018-04-02T11:40:33.998Z,22.25
2018-04-02T11:41:33.982Z,22.5
2018-04-02T11:42:34.037Z,22.25
2018-04-02T11:43:33.984Z,22.5
2018-04-02T11:44:33.991Z,22.25
2018-04-02T11:45:34.000Z,22.25
2018-04-02T11:46:33.988Z,22.25
2018-04-02T11:47:34.008Z,22.5
2018-04-02T11:48:42.664Z,22.25
2018-04-02T11:49:42.675Z,22.5
2018-04-02T11:50:42.677Z,22.5
2018-04-02T11:51:42.682Z,22.5
2018-04-02T11:52:42.736Z,22.25
2018-04-02T11:53:42.690Z,22.5
2018-04-02T11:54:42.663Z,22.5
2018-04-02T11:55:56.569Z,22.25
2018-04-02T11:56:56.540Z,22.5
2018-04-02T11:57:56.505Z,22.5
2018-04-02T11:58:56.519Z,22.5
2018-04-02T11:59:56.505Z,22.25
2018-04-02T12:00:56.511Z,22.5
2018-04-02T12:01:56.507Z,22.5
2018-04-02T12:02:56.555Z,22.5
2018-04-02T12:03:56.812Z,22.75
2018-04-02T12:04:56.510Z,22.75
2018-04-02T12:05:56.531Z,22.5
2018-04-02T12:06:56.514Z,22.5
2018-04-02T12:07:56.552Z,22.75
2018-04-02T12:08:56.526Z,22.25
2018-04-02T12:09:56.520Z,22.5
2018-04-02T12:10:56.493Z,22.5
2018-04-02T12:11:56.525Z,22.5
2018-04-02T12:12:56.545Z,22.75
2018-04-02T12:13:56.496Z,22.75
2018-04-02T12:14:56.522Z,22.5
2018-04-02T12:15:56.558Z,22.75
2018-04-02T12:16:56.528Z,22.75
2018-04-02T12:17:56.501Z,22.5
2018-04-02T12:18:56.380Z,22.5
2018-04-02T12:19:56.549Z,22.75
2018-04-02T12:20:56.915Z,22.5
2018-04-02T12:21:56.505Z,22.75
2018-04-02T12:22:56.580Z,22.75
2018-04-02T12:23:56.537Z,22.5
2018-04-02T12:24:56.792Z,22.75
2018-04-02T12:25:56.664Z,22.75
2018-04-02T12:26:56.532Z,22.5
2018-04-02T12:27:56.521Z,22.75
2018-04-02T12:28:56.548Z,22.75
2018-04-02T12:29:56.670Z,22.5
2018-04-02T12:30:56.643Z,22.75
2018-04-02T12:31:56.509Z,22.75
2018-04-02T12:32:56.551Z,22.5
2018-04-02T12:33:56.533Z,22.75
2018-04-02T12:34:56.538Z,22.75
2018-04-02T12:35:56.549Z,22.5
2018-04-02T12:36:56.723Z,22.75
2018-04-02T12:37:56.506Z,22.75
2018-04-02T12:38:56.503Z,22.5
2018-04-02T12:39:56.513Z,22.75
2018-04-02T12:40:56.490Z,22.75
2018-04-02T12:41:56.554Z,22.5
2018-04-02T12:42:57.249Z,22.5
2018-04-02T12:43:57.329Z,22.5
2018-04-02T12:44:56.516Z,22.25
2018-04-02T12:45:56.539Z,22.5
2018-04-02T12:46:56.805Z,22.5
2018-04-02T12:47:56.543Z,22.25
2018-04-02T12:48:56.493Z,22.5
2018-04-02T12:49:56.501Z,22.5
2018-04-02T12:50:56.498Z,22.25
2018-04-02T12:51:56.543Z,22.5
2018-04-02T12:52:56.494Z,22.5
2018-04-02T12:53:56.507Z,22.25
2018-04-02T12:54:56.527Z,22.5
2018-04-02T12:55:56.514Z,22.5
2018-04-02T12:56:56.836Z,22.25
2018-04-02T12:57:56.516Z,22.5
2018-04-02T12:58:56.649Z,22.5
2018-04-02T12:59:56.536Z,22.25
2018-04-02T13:00:56.595Z,22.5
2018-04-02T13:01:56.542Z,22.5
2018-04-02T13:02:56.516Z,22.25
2018-04-02T13:03:56.512Z,22.25
2018-04-02T13:04:56.516Z,22.5
2018-04-02T13:05:56.504Z,22.25
2018-04-02T13:06:56.534Z,22.25
2018-04-02T13:07:56.499Z,22.25
2018-04-02T13:08:56.520Z,22.25
2018-04-02T13:09:56.502Z,22.25
2018-04-02T13:10:56.495Z,22.25
2018-04-02T13:11:56.504Z,22
2018-04-02T13:12:56.500Z,22.25
2018-04-02T13:13:56.523Z,22.25
2018-04-02T13:14:56.508Z,22
2018-04-02T13:15:56.498Z,22.25
2018-04-02T13:16:56.481Z,22.25
2018-04-02T13:17:56.540Z,22
2018-04-02T13:18:56.781Z,22.25
2018-04-02T13:19:56.516Z,22.25
2018-04-02T13:20:56.538Z,22
2018-04-02T13:21:56.613Z,22.25
2018-04-02T13:22:56.533Z,22.25
2018-04-02T13:23:56.564Z,22
2018-04-02T13:24:56.509Z,22.25
2018-04-02T13:25:56.502Z,22.25
2018-04-02T13:26:56.538Z,22.25
2018-04-02T13:27:56.572Z,22.25
2018-04-02T13:28:56.494Z,22.25
2018-04-02T13:29:56.520Z,22.25
2018-04-02T13:30:56.487Z,22.25
2018-04-02T13:31:56.478Z,22.25
2018-04-02T13:32:56.510Z,22